Time;durP1;ratioP1;P1;durP2;ratioP2;P2;SDS_P1;SDS_P2;PMS_P1;PMS_P2;Temp;Humidity;BMP_temperature;BMP_pressure;BME280_temperature;BME280_humidity;BME280_pressure;Samples;Min_cycle;Max_cycle;Signal;HPM_P1;HPM_P2
2021/11/16 00:01:53;;;;;;;;;22.75;12.75;;;;;18.51;88.38;101965.88;5109194;27;45389;-85
2021/11/16 00:04:18;;;;;;;;;17.25;13.25;;;;;18.58;87.31;101969.78;5103847;27;45708;-86
2021/11/16 00:06:51;;;;;;;;;28.50;14.25;;;;;18.50;87.32;101970.38;5082953;27;45761;-86
2021/11/16 00:09:16;;;;;;;;;16.50;9.75;;;;;18.49;87.04;101966.00;5084384;27;47634;-86
2021/11/16 00:11:42;;;;;;;;;17.25;13.50;;;;;18.44;87.21;101962.00;5106938;27;45682;-86
2021/11/16 00:14:08;;;;;;;;;17.50;14.00;;;;;18.42;86.85;101970.16;5099953;27;45417;-85
2021/11/16 00:16:34;;;;;;;;;13.50;10.50;;;;;18.44;87.22;101970.03;5098805;27;45530;-84
2021/11/16 00:19:01;;;;;;;;;18.75;12.50;;;;;18.43;87.04;101960.28;5099868;27;45457;-84
2021/11/16 00:21:27;;;;;;;;;20.00;14.75;;;;;18.29;87.30;101948.91;5101208;27;45610;-85
2021/11/16 00:23:59;;;;;;;;;18.25;13.75;;;;;18.38;87.50;101950.00;5104731;27;45758;-85
2021/11/16 00:26:24;;;;;;;;;20.75;11.75;;;;;18.28;87.50;101949.03;5087395;27;45464;-85
2021/11/16 00:28:51;;;;;;;;;19.25;10.00;;;;;18.09;89.01;101954.16;5101840;27;46161;-85
2021/11/16 00:31:17;;;;;;;;;19.75;13.25;;;;;18.01;89.13;101954.78;5112869;27;45368;-85
2021/11/16 00:33:43;;;;;;;;;16.50;11.75;;;;;18.02;89.93;101942.25;5096859;27;45369;-85
2021/11/16 00:36:09;;;;;;;;;13.75;9.75;;;;;18.08;89.73;101939.09;5089015;27;45638;-85
2021/11/16 00:38:35;;;;;;;;;15.75;10.00;;;;;18.12;89.81;101929.84;5093176;27;47207;-85
2021/11/16 00:41:03;;;;;;;;;18.75;14.00;;;;;18.17;90.83;101930.31;5107512;27;45797;-85
2021/11/16 00:43:29;;;;;;;;;14.50;12.00;;;;;18.16;90.48;101933.97;5112015;27;45357;-84
2021/11/16 00:45:56;;;;;;;;;15.25;10.00;;;;;18.01;90.58;101920.03;5088163;27;45403;-85
2021/11/16 00:48:23;;;;;;;;;18.50;12.00;;;;;18.04;90.65;101919.75;5098203;27;45349;-84
2021/11/16 00:50:56;;;;;;;;;20.00;14.00;;;;;18.11;91.24;101923.66;5086922;27;46321;-84
2021/11/16 00:53:24;;;;;;;;;15.50;13.75;;;;;18.13;91.77;101916.34;5113922;27;45417;-85
2021/11/16 00:55:51;;;;;;;;;21.50;12.50;;;;;18.24;91.15;101916.34;5111804;27;45455;-84
2021/11/16 00:58:17;;;;;;;;;25.75;12.75;;;;;18.18;91.58;101910.63;5105803;27;45298;-84
2021/11/16 01:00:43;;;;;;;;;19.50;14.50;;;;;18.20;93.46;101912.22;5105911;27;45385;-84
2021/11/16 01:03:11;;;;;;;;;26.25;16.25;;;;;18.23;92.89;101909.28;5084340;27;45489;-85
2021/11/16 01:05:39;;;;;;;;;21.25;12.50;;;;;18.31;91.88;101905.97;5094971;27;45491;-84
2021/11/16 01:08:04;;;;;;;;;15.00;13.50;;;;;18.31;90.78;101903.31;5084171;27;48093;-85
2021/11/16 01:10:31;;;;;;;;;18.00;9.25;;;;;18.32;90.20;101900.50;5118297;27;45331;-85
2021/11/16 01:12:56;;;;;;;;;15.75;14.00;;;;;18.00;90.64;101901.44;5087512;27;45431;-84
2021/11/16 01:15:22;;;;;;;;;18.50;9.75;;;;;18.01;90.99;101900.47;5109277;27;45437;-84
2021/11/16 01:17:48;;;;;;;;;14.50;10.00;;;;;18.02;91.98;101905.69;5102574;27;46413;-84
2021/11/16 01:20:16;;;;;;;;;20.25;14.25;;;;;18.16;91.94;101900.06;5080938;28;45469;-85
2021/11/16 01:22:43;;;;;;;;;13.00;10.25;;;;;18.30;91.74;101894.44;5096697;27;45426;-85
2021/11/16 01:25:10;;;;;;;;;16.50;10.00;;;;;18.40;90.68;101896.34;5102156;27;45230;-85
2021/11/16 01:27:36;;;;;;;;;15.50;13.00;;;;;18.39;90.31;101892.81;5080962;27;47005;-85
2021/11/16 01:30:07;;;;;;;;;22.25;15.00;;;;;18.55;90.09;101895.97;5101679;27;45518;-85
2021/11/16 01:32:40;;;;;;;;;17.75;13.75;;;;;18.45;89.95;101897.69;5101668;27;45307;-85
2021/11/16 01:35:07;;;;;;;;;15.25;13.00;;;;;18.49;90.10;101900.94;5101480;27;45423;-85
2021/11/16 01:37:32;;;;;;;;;14.50;14.25;;;;;18.41;89.95;101904.25;5078998;27;46653;-85
2021/11/16 01:39:58;;;;;;;;;18.25;9.00;;;;;18.49;89.99;101901.78;5101875;27;45359;-85
2021/11/16 01:42:23;;;;;;;;;20.50;14.00;;;;;18.46;89.91;101901.22;5084137;27;45397;-85
2021/11/16 01:44:50;;;;;;;;;19.25;12.00;;;;;18.50;90.08;101908.84;5102433;27;45282;-85
2021/11/16 01:47:17;;;;;;;;;11.75;4.50;;;;;18.54;90.47;101912.97;5083039;27;47117;-85
2021/11/16 01:49:43;;;;;;;;;21.00;14.50;;;;;18.55;90.50;101912.00;5102269;27;45371;-85
2021/11/16 01:52:09;;;;;;;;;17.00;12.75;;;;;18.29;91.59;101910.63;5087796;27;45352;-85
2021/11/16 01:54:36;;;;;;;;;17.50;13.75;;;;;18.26;91.99;101910.88;5105538;27;45363;-85
2021/11/16 01:57:01;;;;;;;;;23.50;11.50;;;;;18.15;92.27;101909.06;5084509;27;47279;-85
2021/11/16 01:59:27;;;;;;;;;17.75;8.00;;;;;18.19;92.61;101917.69;5109090;27;45214;-85
2021/11/16 02:01:54;;;;;;;;;16.50;11.75;;;;;18.17;92.60;101907.13;5126470;27;45275;-85
2021/11/16 02:04:22;;;;;;;;;19.75;13.50;;;;;18.19;100.00;101909.66;5130563;27;45237;-85
2021/11/16 02:06:48;;;;;;;;;20.00;14.75;;;;;18.16;92.75;101902.75;5105723;27;47065;-85
2021/11/16 02:09:15;;;;;;;;;16.00;10.00;;;;;18.11;92.95;101912.13;5125393;27;45188;-85
2021/11/16 02:11:41;;;;;;;;;20.25;14.25;;;;;18.17;92.66;101898.25;5101057;27;44748;-85
2021/11/16 02:14:11;;;;;;;;;19.25;12.00;;;;;18.17;93.86;101893.75;5111086;27;44751;-85
2021/11/16 02:16:37;;;;;;;;;17.00;13.00;;;;;18.12;94.37;101903.13;5129560;27;45458;-85
2021/11/16 02:19:05;;;;;;;;;16.75;13.25;;;;;18.20;94.35;101901.53;5108096;27;46367;-84
2021/11/16 02:21:31;;;;;;;;;24.00;12.50;;;;;18.16;94.38;101897.38;5106633;27;45460;-85
2021/11/16 02:23:57;;;;;;;;;15.25;10.50;;;;;18.07;94.91;101894.59;5100787;27;45355;-84
2021/11/16 02:26:23;;;;;;;;;23.50;10.50;;;;;18.01;95.00;101885.28;5114526;27;45607;-85
2021/11/16 02:28:49;;;;;;;;;20.25;13.25;;;;;18.21;94.21;101891.66;5114266;27;45221;-85
2021/11/16 02:31:16;;;;;;;;;21.50;11.75;;;;;18.28;94.21;101890.19;5102653;27;45535;-85
2021/11/16 02:33:42;;;;;;;;;19.00;11.00;;;;;18.24;94.01;101886.91;5102220;27;45457;-85
2021/11/16 02:36:08;;;;;;;;;14.00;10.75;;;;;18.23;93.69;101889.72;5081601;27;47345;-85
2021/11/16 02:38:35;;;;;;;;;18.00;12.00;;;;;18.25;93.57;101885.94;5105140;27;45496;-85
2021/11/16 02:41:02;;;;;;;;;13.00;9.00;;;;;18.18;93.90;101883.91;5122462;27;45361;-85
2021/11/16 02:43:29;;;;;;;;;19.25;10.75;;;;;18.18;93.45;101899.94;5088891;27;45555;-85
2021/11/16 02:45:54;;;;;;;;;23.25;9.25;;;;;18.26;93.28;101889.47;5082821;27;48028;-86
2021/11/16 02:48:20;;;;;;;;;14.50;8.75;;;;;18.18;94.14;101892.78;5100966;27;45454;-85
2021/11/16 02:50:54;;;;;;;;;16.25;11.00;;;;;18.06;94.30;101893.75;5104297;27;45337;-85
2021/11/16 02:53:19;;;;;;;;;10.75;10.50;;;;;18.05;94.27;101883.19;5101267;27;45337;-85
2021/11/16 02:55:45;;;;;;;;;11.75;10.25;;;;;18.10;94.74;101878.34;5109197;27;47163;-85
2021/11/16 02:58:12;;;;;;;;;14.25;7.25;;;;;18.30;94.58;101889.06;5100511;27;46828;-85
2021/11/16 03:00:40;;;;;;;;;11.75;8.00;;;;;18.20;93.72;101884.63;5082529;27;45444;-85
2021/11/16 03:03:05;;;;;;;;;24.25;12.75;;;;;18.17;94.18;101885.72;5081943;27;45486;-85
2021/11/16 03:05:33;;;;;;;;;15.75;9.50;;;;;18.16;94.02;101880.50;5090866;27;47458;-85
2021/11/16 03:07:59;;;;;;;;;15.25;8.75;;;;;18.18;93.50;101883.91;5091576;27;46093;-85
2021/11/16 03:10:30;;;;;;;;;12.50;9.75;;;;;18.19;93.63;101886.47;5113026;27;45349;-86
2021/11/16 03:12:57;;;;;;;;;21.00;11.75;;;;;18.29;93.58;101879.38;5100575;27;45499;-86
2021/11/16 03:15:23;;;;;;;;;15.75;8.75;;;;;18.23;93.39;101882.53;5095394;27;48228;-85
2021/11/16 03:17:48;;;;;;;;;20.50;13.50;;;;;18.18;93.24;101884.75;5081580;27;45435;-85
2021/11/16 03:20:16;;;;;;;;;19.00;13.75;;;;;18.16;94.26;101884.03;5082431;27;45351;-85
2021/11/16 03:22:53;;;;;;;;;14.25;10.00;;;;;18.21;93.64;101875.59;5118154;27;45570;-85
2021/11/16 03:25:23;;;;;;;;;20.00;14.00;;;;;18.20;93.49;101873.94;5088956;27;47879;-85
2021/11/16 03:27:57;;;;;;;;;15.00;11.75;;;;;18.19;93.70;101878.44;5091121;27;45406;-85
2021/11/16 03:30:24;;;;;;;;;17.00;10.00;;;;;18.26;93.80;101868.09;5093945;27;45442;-85
2021/11/16 03:32:49;;;;;;;;;18.25;10.25;;;;;18.27;93.54;101875.13;5100670;27;45349;-86
2021/11/16 03:35:15;;;;;;;;;15.50;10.00;;;;;18.30;92.72;101872.19;5114080;27;45264;-85
2021/11/16 03:37:46;;;;;;;;;14.25;8.75;;;;;18.25;92.05;101874.41;5101208;27;45210;-85
2021/11/16 03:40:13;;;;;;;;;16.75;11.25;;;;;18.04;92.77;101877.00;5115337;27;45443;-85
2021/11/16 03:42:42;;;;;;;;;24.75;12.50;;;;;18.18;92.70;101875.88;5082128;27;44944;-85
2021/11/16 03:45:08;;;;;;;;;15.50;10.00;;;;;18.12;92.99;101876.38;5097086;27;45520;-85
2021/11/16 03:47:34;;;;;;;;;13.50;9.00;;;;;18.17;92.90;101885.72;5081602;27;45454;-85
2021/11/16 03:49:59;;;;;;;;;14.00;9.50;;;;;18.13;92.18;101883.41;5106200;27;45306;-85
2021/11/16 03:52:26;;;;;;;;;14.25;11.75;;;;;18.19;91.03;101885.59;5105173;27;45449;-86
2021/11/16 03:54:52;;;;;;;;;9.00;5.50;;;;;18.16;90.08;101883.16;5099864;27;45955;-85
2021/11/16 03:57:18;;;;;;;;;14.00;8.00;;;;;18.17;88.91;101877.72;5099794;27;45243;-85
2021/11/16 03:59:44;;;;;;;;;9.00;7.00;;;;;18.11;88.62;101874.69;5101635;27;45267;-85
2021/11/16 04:02:09;;;;;;;;;13.00;10.00;;;;;18.06;88.31;101877.72;5119699;27;45424;-85
2021/11/16 04:04:35;;;;;;;;;15.50;10.50;;;;;18.18;88.22;101882.06;5096928;27;47236;-85
2021/11/16 04:07:00;;;;;;;;;14.75;9.00;;;;;18.16;88.41;101877.81;5119433;27;45327;-85
2021/11/16 04:09:26;;;;;;;;;17.75;10.25;;;;;17.99;89.25;101881.00;5104424;27;45221;-85
2021/11/16 04:11:52;;;;;;;;;13.75;12.25;;;;;18.11;88.68;101878.22;5103714;27;45533;-85
2021/11/16 04:14:18;;;;;;;;;17.00;9.25;;;;;18.20;88.81;101877.47;5103398;27;45434;-85
2021/11/16 04:16:43;;;;;;;;;15.50;11.25;;;;;18.02;89.37;101873.63;5108972;27;45520;-85
2021/11/16 04:19:09;;;;;;;;;24.00;15.00;;;;;17.85;90.26;101874.94;5119479;27;45411;-85
2021/11/16 04:21:34;;;;;;;;;19.00;10.75;;;;;17.79;90.99;101875.44;5105958;27;45452;-85
2021/11/16 04:23:59;;;;;;;;;17.25;10.25;;;;;17.86;90.54;101871.31;5104009;27;45991;-85
2021/11/16 04:26:25;;;;;;;;;13.25;9.25;;;;;17.92;90.80;101878.84;5103171;27;45388;-85
2021/11/16 04:28:51;;;;;;;;;18.00;12.75;;;;;17.75;91.29;101875.81;5105817;27;45676;-84
2021/11/16 04:31:17;;;;;;;;;22.25;15.00;;;;;17.97;91.10;101873.13;5086616;27;45585;-85
2021/11/16 04:33:43;;;;;;;;;17.25;10.00;;;;;17.88;91.17;101869.38;5084441;27;46956;-85
2021/11/16 04:36:11;;;;;;;;;25.25;10.75;;;;;17.89;91.44;101868.41;5111085;27;45313;-85
2021/11/16 04:38:36;;;;;;;;;18.00;13.00;;;;;17.87;91.86;101878.34;5120925;27;45346;-85
2021/11/16 04:41:02;;;;;;;;;21.75;15.00;;;;;17.94;91.41;101876.88;5119036;27;45553;-85
2021/11/16 04:43:29;;;;;;;;;20.50;14.00;;;;;17.87;91.76;101878.34;5116312;27;46003;-85
2021/11/16 04:45:59;;;;;;;;;18.25;14.25;;;;;17.88;91.72;101881.88;5102246;27;45720;-85
2021/11/16 05:04:51;;;;;;;;;21.50;15.75;;;;;17.99;91.20;101889.03;5066987;27;45542;-84
2021/11/16 05:07:18;;;;;;;;;18.50;12.00;;;;;18.05;90.60;101885.84;5102480;27;45427;-84
2021/11/16 05:09:55;;;;;;;;;18.75;13.00;;;;;18.12;90.24;101887.09;5105275;27;45378;-84
2021/11/16 05:12:23;;;;;;;;;14.50;12.50;;;;;18.18;90.13;101886.56;5103609;27;45760;-84
2021/11/16 05:14:50;;;;;;;;;22.25;14.00;;;;;18.12;90.40;101879.06;5092331;27;45548;-84
2021/11/16 05:17:15;;;;;;;;;16.25;13.50;;;;;18.14;90.07;101880.63;5102324;27;45347;-84
2021/11/16 05:19:40;;;;;;;;;16.50;10.50;;;;;18.11;90.07;101872.00;5105707;27;45927;-84
2021/11/16 05:22:06;;;;;;;;;17.50;12.00;;;;;18.17;90.15;101872.34;5102255;27;45483;-84
2021/11/16 05:24:32;;;;;;;;;20.25;16.00;;;;;18.25;89.80;101891.28;5113417;27;46017;-84
2021/11/16 05:26:58;;;;;;;;;24.50;14.50;;;;;18.31;89.83;101882.75;5096899;27;45412;-84
2021/11/16 05:29:23;;;;;;;;;26.25;15.25;;;;;18.10;89.58;101876.50;5112740;27;45528;-84
2021/11/16 05:31:49;;;;;;;;;27.00;17.25;;;;;17.95;90.95;101883.06;5106272;27;45401;-84
2021/11/16 05:34:14;;;;;;;;;22.75;13.50;;;;;17.97;90.54;101881.13;5104207;27;47328;-85
2021/11/16 05:36:40;;;;;;;;;28.50;19.25;;;;;17.97;90.89;101883.81;5106937;27;45250;-85
2021/11/16 05:39:06;;;;;;;;;15.75;9.00;;;;;17.90;91.06;101883.47;5091584;27;45272;-85
2021/11/16 05:41:33;;;;;;;;;21.50;12.00;;;;;18.12;90.18;101893.25;5075934;27;46350;-85
2021/11/16 05:43:59;;;;;;;;;24.00;15.50;;;;;18.12;90.68;101893.25;5101553;27;46181;-85
2021/11/16 05:46:25;;;;;;;;;19.50;14.50;;;;;18.15;90.43;101895.69;5083023;27;45458;-85
2021/11/16 05:48:52;;;;;;;;;15.00;13.25;;;;;18.24;90.11;101891.41;5093255;27;45414;-85
2021/11/16 05:51:19;;;;;;;;;23.00;14.25;;;;;18.27;90.01;101883.16;5102751;27;45304;-85
2021/11/16 05:53:50;;;;;;;;;19.75;12.75;;;;;18.15;89.95;101887.66;5100288;27;45437;-85
2021/11/16 05:56:19;;;;;;;;;22.25;15.25;;;;;18.19;89.54;101893.63;5100179;27;45689;-85
2021/11/16 05:58:45;;;;;;;;;16.50;15.00;;;;;18.24;89.42;101892.25;5101339;27;45311;-85
2021/11/16 06:01:10;;;;;;;;;20.00;10.75;;;;;18.20;89.46;101892.66;5109247;27;45152;-85
2021/11/16 06:03:36;;;;;;;;;19.00;12.50;;;;;18.04;90.22;101886.81;5088433;27;47402;-85
2021/11/16 06:06:01;;;;;;;;;13.75;12.00;;;;;18.06;90.39;101888.41;5113523;27;45268;-85
2021/11/16 06:08:29;;;;;;;;;21.00;12.00;;;;;18.07;90.03;101891.94;5110344;27;45173;-84
2021/11/16 06:10:57;;;;;;;;;15.25;12.75;;;;;18.03;90.33;101887.81;5102843;27;45323;-85
2021/11/16 06:13:23;;;;;;;;;19.75;14.50;;;;;18.07;90.49;101895.47;5100757;27;46295;-85
2021/11/16 06:15:48;;;;;;;;;19.75;13.25;;;;;18.02;90.71;101886.97;5101262;27;45236;-85
2021/11/16 06:18:14;;;;;;;;;21.75;15.50;;;;;17.97;90.52;101894.50;5114294;27;45543;-85
2021/11/16 06:20:42;;;;;;;;;21.50;14.00;;;;;18.12;90.79;101897.78;5106553;27;45654;-85
2021/11/16 06:23:09;;;;;;;;;18.00;11.00;;;;;18.10;90.18;101900.56;5111193;27;45587;-85
2021/11/16 06:25:35;;;;;;;;;16.50;10.25;;;;;18.10;91.03;101899.72;5103666;27;45499;-85
2021/11/16 06:28:00;;;;;;;;;21.25;15.00;;;;;18.03;91.50;101893.19;5106970;27;45429;-85
2021/11/16 06:30:26;;;;;;;;;17.75;11.00;;;;;17.99;91.68;101891.72;5111830;27;45332;-85
2021/11/16 06:32:51;;;;;;;;;20.50;10.00;;;;;18.10;91.02;101907.75;5106301;27;45336;-85
2021/11/16 06:35:18;;;;;;;;;20.75;15.00;;;;;18.07;91.17;101911.50;5082089;27;45485;-83
2021/11/16 06:37:45;;;;;;;;;15.75;10.75;;;;;18.08;91.60;101912.34;5100395;27;46090;-83
2021/11/16 06:40:10;;;;;;;;;22.50;15.00;;;;;17.94;91.83;101908.94;5108734;27;45280;-84
2021/11/16 06:42:36;;;;;;;;;16.50;13.75;;;;;17.91;92.31;101905.69;5100526;27;45297;-83
2021/11/16 06:45:04;;;;;;;;;16.25;12.75;;;;;17.92;92.73;101908.25;5104513;27;45356;-84
2021/11/16 06:47:29;;;;;;;;;19.00;16.75;;;;;17.83;93.00;101903.63;5085405;27;45435;-83
2021/11/16 06:49:54;;;;;;;;;21.25;15.00;;;;;17.82;93.48;101914.44;5117406;27;45535;-83
2021/11/16 06:52:20;;;;;;;;;24.50;15.00;;;;;17.80;94.76;101903.88;5087870;27;47165;-84
2021/11/16 06:54:46;;;;;;;;;19.75;14.25;;;;;17.88;94.57;101904.09;5099888;27;45476;-83
2021/11/16 06:57:12;;;;;;;;;17.75;14.00;;;;;17.71;94.67;101911.75;5100261;27;45498;-83
2021/11/16 06:59:39;;;;;;;;;20.75;16.75;;;;;17.72;94.72;101910.78;5082166;27;45428;-85
2021/11/16 07:02:05;;;;;;;;;20.25;14.25;;;;;17.75;95.37;101910.56;5100361;27;45323;-85
2021/11/16 07:04:37;;;;;;;;;21.25;17.25;;;;;17.93;95.22;101911.78;5093291;27;45601;-84
2021/11/16 07:07:04;;;;;;;;;27.50;13.00;;;;;17.79;95.34;101906.66;5096046;27;45181;-84
2021/11/16 07:09:35;;;;;;;;;24.00;18.25;;;;;18.08;94.49;101917.69;5077916;27;45576;-84
2021/11/16 07:12:01;;;;;;;;;20.25;15.50;;;;;17.77;94.31;101911.25;5099433;27;45544;-85
2021/11/16 07:14:36;;;;;;;;;18.50;13.75;;;;;17.78;94.29;101918.31;5098516;27;45323;-84
2021/11/16 07:17:13;;;;;;;;;25.00;15.75;;;;;17.79;93.79;101925.38;5081292;27;45378;-85
2021/11/16 07:19:42;;;;;;;;;20.25;15.00;;;;;17.71;93.99;101917.97;5099570;27;45299;-85
2021/11/16 07:22:19;;;;;;;;;21.50;13.50;;;;;17.64;93.09;101921.25;5101908;27;45495;-86
2021/11/16 07:24:47;;;;;;;;;20.25;14.50;;;;;17.60;93.56;101917.91;5082669;27;46084;-85
2021/11/16 07:27:14;;;;;;;;;18.00;13.25;;;;;17.65;93.64;101906.91;5102471;27;45366;-85
2021/11/16 07:29:54;;;;;;;;;19.75;12.75;;;;;17.72;93.19;101917.00;5099958;27;45469;-86
2021/11/16 07:32:46;;;;;;;;;14.75;12.00;;;;;17.75;93.86;101908.75;5081723;27;48370;-87
2021/11/16 07:35:15;;;;;;;;;21.50;15.00;;;;;17.62;94.81;101920.47;5099614;27;45580;-85
2021/11/16 07:37:42;;;;;;;;;26.75;15.50;;;;;17.59;94.70;101921.53;5102720;27;45495;-84
2021/11/16 07:40:14;;;;;;;;;23.50;17.75;;;;;17.63;95.68;101917.72;5102720;27;45223;-85
2021/11/16 07:42:47;;;;;;;;;17.25;14.00;;;;;17.67;94.27;101913.81;5103266;27;45460;-85
2021/11/16 07:45:15;;;;;;;;;13.25;12.00;;;;;17.72;94.34;101924.16;5103451;27;45491;-85
2021/11/16 07:47:46;;;;;;;;;26.00;17.00;;;;;17.65;94.76;101920.28;5084847;27;45402;-85
2021/11/16 07:50:17;;;;;;;;;22.50;11.25;;;;;17.76;93.67;101926.44;5083704;27;45484;-85
2021/11/16 07:52:45;;;;;;;;;21.25;15.00;;;;;17.82;94.03;101927.81;5102860;27;45394;-85
2021/11/16 07:55:21;;;;;;;;;17.50;14.00;;;;;17.91;93.55;101930.59;5102684;27;45585;-84
2021/11/16 07:57:47;;;;;;;;;14.00;8.25;;;;;18.05;92.19;101918.78;5102095;27;45468;-83
2021/11/16 08:00:16;;;;;;;;;20.75;14.50;;;;;18.11;91.71;101909.44;5106544;27;45617;-83
2021/11/16 08:02:42;;;;;;;;;28.00;17.00;;;;;17.92;91.65;101904.72;5106018;27;45422;-83
2021/11/16 08:08:26;;;;;;;;;20.75;15.50;;;;;18.03;91.36;101902.00;5101396;27;45343;-84
2021/11/16 08:13:59;;;;;;;;;17.00;14.75;;;;;18.14;89.99;101923.38;5102392;27;46328;-84
2021/11/16 08:16:27;;;;;;;;;18.75;16.50;;;;;18.03;89.94;101911.88;5102205;27;45802;-84
2021/11/16 08:18:59;;;;;;;;;18.25;13.00;;;;;17.97;90.41;101923.03;5105973;27;45639;-84
2021/11/16 08:21:25;;;;;;;;;25.50;17.75;;;;;17.87;89.93;101925.59;5103897;27;45433;-85
2021/11/16 08:24:00;;;;;;;;;23.25;17.00;;;;;17.98;89.33;101928.28;5100066;27;45402;-85
2021/11/16 08:26:39;;;;;;;;;26.25;13.00;;;;;18.11;89.65;101922.81;5106684;27;45379;-85
2021/11/16 08:29:06;;;;;;;;;16.25;11.00;;;;;18.13;89.48;101915.50;5104855;27;45347;-84
2021/11/16 08:31:38;;;;;;;;;20.25;10.00;;;;;17.91;89.59;101919.06;5088645;27;45959;-84
2021/11/16 08:34:06;;;;;;;;;16.00;12.50;;;;;17.84;90.27;101912.50;5104998;27;45285;-83
2021/11/16 08:36:44;;;;;;;;;15.00;13.00;;;;;17.91;87.92;101906.53;5106545;27;45483;-85
2021/11/16 08:39:11;;;;;;;;;17.00;13.25;;;;;18.15;87.97;101911.72;5111927;27;45410;-84
2021/11/16 08:41:39;;;;;;;;;11.00;7.75;;;;;18.24;87.74;101902.97;5088796;27;45611;-84
2021/11/16 08:44:16;;;;;;;;;19.50;10.75;;;;;18.40;86.96;101907.03;5103442;27;45358;-83
2021/11/16 08:46:45;;;;;;;;;18.75;12.75;;;;;18.02;87.77;101904.84;5080023;27;45703;-85
2021/11/16 08:49:29;;;;;;;;;20.25;14.25;;;;;18.00;87.79;101890.75;5085317;27;45447;-85
2021/11/16 08:51:58;;;;;;;;;24.50;14.75;;;;;17.87;87.79;101893.53;5068962;27;45544;-84
2021/11/16 08:54:30;;;;;;;;;16.00;14.00;;;;;18.02;87.68;101896.81;5084154;27;47340;-84
2021/11/16 08:56:56;;;;;;;;;12.50;10.75;;;;;18.08;87.67;101901.66;5081543;27;46089;-84
2021/11/16 08:59:22;;;;;;;;;15.50;11.00;;;;;18.07;87.56;101897.28;5081173;27;45501;-84
2021/11/16 09:01:59;;;;;;;;;17.50;9.50;;;;;18.19;87.52;101899.81;5083031;27;45488;-85
2021/11/16 09:04:29;;;;;;;;;13.50;9.25;;;;;18.21;86.88;101889.84;5099489;27;45712;-84
2021/11/16 09:06:56;;;;;;;;;16.75;13.00;;;;;18.35;86.15;101894.06;5102572;27;45480;-84
2021/11/16 09:09:23;;;;;;;;;12.25;10.00;;;;;18.32;86.09;101900.50;5101961;27;45373;-85
2021/11/16 09:12:05;;;;;;;;;16.00;11.25;;;;;18.37;84.50;101901.97;5083902;27;45519;-84
2021/11/16 09:14:32;;;;;;;;;17.75;12.75;;;;;17.99;85.24;101902.41;5102390;27;47137;-84
2021/11/16 09:17:09;;;;;;;;;16.50;14.00;;;;;18.01;85.57;101895.97;5093570;27;45472;-84
2021/11/16 09:19:34;;;;;;;;;12.25;9.25;;;;;17.99;85.11;101886.34;5084571;27;45333;-85
2021/11/16 09:22:01;;;;;;;;;15.00;10.75;;;;;18.05;85.54;101888.53;5102518;27;45291;-84
2021/11/16 09:24:48;;;;;;;;;14.25;10.75;;;;;18.16;85.04;101872.47;5102079;27;45355;-84
2021/11/16 09:27:34;;;;;;;;;16.00;11.00;;;;;18.28;84.87;101877.69;5101927;27;45405;-84
2021/11/16 09:30:00;;;;;;;;;20.75;11.25;;;;;18.36;85.09;101884.22;5101582;27;45552;-84
2021/11/16 09:32:28;;;;;;;;;15.00;13.25;;;;;18.13;85.42;101876.25;5083666;27;45941;-84
2021/11/16 09:34:56;;;;;;;;;15.25;14.00;;;;;18.14;84.80;101875.28;5101626;27;46034;-84
2021/11/16 09:37:25;;;;;;;;;18.50;11.00;;;;;18.26;84.95;101887.66;5102094;27;45306;-84
2021/11/16 09:39:54;;;;;;;;;17.25;15.00;;;;;18.35;85.26;101877.16;5101769;27;45458;-84
2021/11/16 09:42:28;;;;;;;;;14.25;9.50;;;;;18.55;84.67;101874.56;5101895;27;45373;-84
2021/11/16 09:44:59;;;;;;;;;11.50;10.75;;;;;18.80;83.71;101872.53;5101344;27;45342;-84
2021/11/16 09:47:28;;;;;;;;;15.50;10.50;;;;;18.83;83.22;101866.94;5101578;27;45625;-84
2021/11/16 09:49:59;;;;;;;;;10.00;10.00;;;;;18.97;82.20;101866.59;5101862;27;45294;-84
2021/11/16 09:52:36;;;;;;;;;10.75;7.75;;;;;19.05;81.55;101864.09;5083416;27;45388;-84
2021/11/16 09:55:08;;;;;;;;;10.50;9.00;;;;;19.16;82.15;101863.19;5085931;27;46445;-84
2021/11/16 09:57:38;;;;;;;;;10.75;9.00;;;;;19.16;81.61;101857.84;5102526;27;45429;-84
2021/11/16 10:00:18;;;;;;;;;11.25;7.00;;;;;19.29;80.94;101871.88;5100899;27;45358;-84
2021/11/16 10:03:03;;;;;;;;;11.25;8.00;;;;;19.32;80.54;101879.63;5101498;27;45499;-85
2021/11/16 10:05:32;;;;;;;;;9.50;7.50;;;;;19.25;80.23;101873.97;5099527;27;45459;-85
2021/11/16 10:08:00;;;;;;;;;12.75;9.00;;;;;19.17;78.84;101871.09;5101527;27;45491;-84
2021/11/16 10:10:33;;;;;;;;;13.50;5.25;;;;;19.09;78.93;101865.56;5101889;27;45255;-84
2021/11/16 10:13:01;;;;;;;;;9.00;7.00;;;;;19.15;78.87;101869.53;5098603;27;45641;-84
2021/11/16 10:15:32;;;;;;;;;8.00;4.25;;;;;19.12;79.12;101859.09;5078360;27;47057;-84
2021/11/16 10:17:58;;;;;;;;;17.75;9.00;;;;;18.99;78.40;101881.56;5099530;27;45402;-84
2021/11/16 10:20:29;;;;;;;;;14.75;8.50;;;;;19.06;78.20;101885.41;5081018;27;45281;-86
2021/11/16 10:22:57;;;;;;;;;11.50;9.50;;;;;18.70;79.81;101883.16;5101334;27;45393;-85
2021/11/16 10:25:25;;;;;;;;;12.75;8.50;;;;;18.66;80.00;101868.34;5082192;27;46996;-84
2021/11/16 10:27:54;;;;;;;;;14.75;12.25;;;;;18.65;79.92;101869.31;5079338;28;45327;-84
2021/11/16 10:30:22;;;;;;;;;14.75;11.25;;;;;18.60;80.08;101866.16;5078473;28;45363;-84
2021/11/16 10:33:13;;;;;;;;;15.25;10.75;;;;;18.75;80.14;101864.06;5080665;27;45371;-84
2021/11/16 10:35:43;;;;;;;;;15.50;9.75;;;;;18.78;79.77;101869.97;5083572;27;46323;-84
2021/11/16 10:38:13;;;;;;;;;17.50;11.00;;;;;18.72;79.85;101861.63;5100764;27;45179;-84
2021/11/16 10:40:39;;;;;;;;;18.00;12.75;;;;;18.80;80.52;101869.84;5101130;27;45470;-84
2021/11/16 10:43:06;;;;;;;;;18.00;13.25;;;;;18.88;80.94;101860.19;5100906;27;45576;-84
2021/11/16 10:45:34;;;;;;;;;18.75;12.50;;;;;19.01;80.57;101868.03;5101027;27;46487;-84
2021/11/16 10:48:09;;;;;;;;;18.50;15.75;;;;;19.01;80.27;101873.41;5100637;27;45557;-84
2021/11/16 10:50:36;;;;;;;;;15.00;13.50;;;;;18.96;80.24;101864.88;5078986;27;45351;-84
2021/11/16 10:53:09;;;;;;;;;21.75;15.25;;;;;18.80;80.13;101869.84;5098556;27;45158;-84
2021/11/16 10:55:47;;;;;;;;;10.50;10.25;;;;;18.81;80.71;101868.88;5099195;27;45498;-84
2021/11/16 10:58:15;;;;;;;;;17.00;11.50;;;;;18.79;80.79;101874.34;5096027;27;45831;-84
2021/11/16 11:00:46;;;;;;;;;17.25;11.25;;;;;18.84;80.65;101865.94;5093401;27;45378;-84
2021/11/16 11:03:23;;;;;;;;;12.50;9.25;;;;;19.11;80.09;101871.63;5100104;27;45419;-84
2021/11/16 11:05:56;;;;;;;;;13.50;10.75;;;;;18.96;79.79;101852.34;5100497;27;45436;-84
2021/11/16 11:08:36;;;;;;;;;15.50;10.50;;;;;19.06;79.92;101861.31;5078228;27;45767;-83
2021/11/16 11:11:04;;;;;;;;;21.25;15.50;;;;;18.87;79.89;101850.47;5090206;27;45374;-84
2021/11/16 11:13:32;;;;;;;;;24.25;11.00;;;;;18.60;81.58;101842.94;5108329;27;45259;-84
2021/11/16 11:15:58;;;;;;;;;15.00;12.00;;;;;18.69;81.41;101855.53;5088670;27;48037;-84
2021/11/16 11:18:36;;;;;;;;;19.50;13.25;;;;;18.62;81.60;101848.16;5088248;27;45624;-84
2021/11/16 11:21:06;;;;;;;;;24.25;16.25;;;;;18.59;82.23;101845.72;5102584;27;46116;-83
2021/11/16 11:23:45;;;;;;;;;25.25;18.00;;;;;18.49;82.33;101839.41;5106508;27;45309;-84
2021/11/16 11:26:21;;;;;;;;;20.75;17.00;;;;;18.51;83.29;101845.50;5105313;27;45550;-84
2021/11/16 11:29:33;;;;;;;;;20.00;19.00;;;;;18.43;83.07;101832.75;5104863;27;45590;-83
2021/11/16 11:31:35;;;;;;;;;24.50;18.75;;;;;18.33;83.50;101821.13;5101510;27;45406;-84
2021/11/16 11:34:01;;;;;;;;;18.50;15.25;;;;;18.29;82.90;101827.72;5102757;27;45362;-83
2021/11/16 11:36:26;;;;;;;;;20.50;17.00;;;;;18.19;83.01;101834.81;5106903;27;45456;-83
2021/11/16 11:38:53;;;;;;;;;20.50;16.50;;;;;18.13;83.24;101829.94;5106837;27;45355;-83
2021/11/16 11:41:21;;;;;;;;;23.00;15.00;;;;;18.22;83.55;101827.38;5106456;27;45401;-83